Time;durP1;ratioP1;P1;durP2;ratioP2;P2;SDS_P1;SDS_P2;PMS_P1;PMS_P2;Temp;Humidity;BMP_temperature;BMP_pressure;BME280_temperature;BME280_humidity;BME280_pressure;Samples;Min_cycle;Max_cycle;Signal;HPM_P1;HPM_P2
2022/04/21 00:00:19;;;;;;;1.83;1.15;;;8.20;99.90;;;;;;5077978;28;20075;-74
2022/04/21 00:02:45;;;;;;;0.95;0.77;;;7.90;99.90;;;;;;5094907;28;20036;-74
2022/04/21 00:05:12;;;;;;;1.83;1.15;;;8.20;99.90;;;;;;5094764;28;20484;-74
2022/04/21 00:07:38;;;;;;;1.42;1.10;;;8.20;99.90;;;;;;5094818;28;20082;-74
2022/04/21 00:10:04;;;;;;;2.53;1.35;;;8.20;99.90;;;;;;5094942;28;20031;-74
2022/04/21 00:12:30;;;;;;;1.95;1.50;;;7.70;99.90;;;;;;5078019;28;20036;-74
2022/04/21 00:14:56;;;;;;;3.95;1.60;;;7.80;99.90;;;;;;5077870;28;20050;-74
2022/04/21 00:17:22;;;;;;;2.45;1.10;;;7.90;99.90;;;;;;5094743;28;20060;-75
2022/04/21 00:19:48;;;;;;;5.28;1.58;;;8.60;99.90;;;;;;5094604;28;20406;-74
2022/04/21 00:24:58;;;;;;;2.53;1.33;;;7.70;99.90;;;;;;5094587;28;20454;-74
2022/04/21 00:27:24;;;;;;;1.77;1.02;;;8.00;99.90;;;;;;5094456;28;20036;-74
2022/04/21 00:29:50;;;;;;;2.60;1.23;;;7.60;99.90;;;;;;5059884;28;20403;-74
2022/04/21 00:32:15;;;;;;;1.05;0.90;;;7.70;99.90;;;;;;5076419;28;20075;-74
2022/04/21 00:34:41;;;;;;;2.90;1.77;;;7.90;99.90;;;;;;5093103;28;20086;-74
2022/04/21 00:37:07;;;;;;;2.13;1.33;;;7.90;99.90;;;;;;5093148;28;20044;-74
2022/04/21 00:39:33;;;;;;;2.35;1.13;;;7.80;99.90;;;;;;5076272;28;20036;-74
2022/04/21 00:42:00;;;;;;;1.33;0.85;;;7.80;99.90;;;;;;5076181;28;20123;-74
2022/04/21 00:44:27;;;;;;;3.38;1.38;;;7.80;99.90;;;;;;5093050;28;20044;-74
2022/04/21 00:47:00;;;;;;;3.67;2.33;;;7.60;99.90;;;;;;5093255;28;20391;-74
2022/04/21 00:49:27;;;;;;;1.98;1.30;;;7.80;99.90;;;;;;5092981;28;20075;-74
2022/04/21 00:51:54;;;;;;;2.25;1.35;;;7.80;99.90;;;;;;5092887;28;20048;-72
2022/04/21 00:54:21;;;;;;;2.92;1.40;;;7.70;99.90;;;;;;5092906;28;20036;-73
2022/04/21 00:56:47;;;;;;;3.42;2.25;;;7.40;99.90;;;;;;5092781;28;20133;-73
2022/04/21 00:59:13;;;;;;;4.78;1.63;;;7.70;99.90;;;;;;5093140;28;20043;-72
2022/04/21 01:04:24;;;;;;;3.28;1.67;;;7.60;99.90;;;;;;5092699;28;20040;-73
2022/04/21 01:06:54;;;;;;;3.70;1.67;;;7.40;99.90;;;;;;5092662;28;20032;-73
2022/04/21 01:09:21;;;;;;;4.28;1.85;;;7.90;99.90;;;;;;5092627;28;20124;-73
2022/04/21 01:11:48;;;;;;;3.25;1.63;;;7.40;99.90;;;;;;5076285;28;20193;-74
2022/04/21 01:14:14;;;;;;;2.33;1.35;;;7.30;99.90;;;;;;5075927;28;20044;-74
2022/04/21 01:16:40;;;;;;;4.65;2.03;;;7.40;99.90;;;;;;5075693;28;20040;-74
2022/04/21 01:19:06;;;;;;;3.85;1.90;;;7.50;99.90;;;;;;5076114;28;20040;-72
2022/04/21 01:21:32;;;;;;;4.57;2.03;;;8.00;99.90;;;;;;5092572;28;20106;-74
2022/04/21 01:23:58;;;;;;;2.42;1.48;;;7.70;99.90;;;;;;5075527;28;20100;-74
2022/04/21 01:26:28;;;;;;;3.40;1.90;;;7.30;99.90;;;;;;5092344;28;20046;-74
2022/04/21 01:28:55;;;;;;;2.05;1.27;;;7.00;99.90;;;;;;5072044;28;473263;-74
2022/04/21 01:31:24;;;;;;;3.22;1.33;;;7.70;99.90;;;;;;5084292;28;20109;-73
2022/04/21 01:33:50;;;;;;;1.80;1.55;;;7.30;99.90;;;;;;5093182;28;20070;-74
2022/04/21 01:36:17;;;;;;;3.35;2.00;;;6.90;99.90;;;;;;5076838;28;20092;-74
2022/04/21 01:41:26;;;;;;;6.30;2.17;;;7.10;99.90;;;;;;5093210;28;20075;-73
2022/04/21 01:43:52;;;;;;;1.52;1.42;;;7.30;99.90;;;;;;5093312;28;20518;-74
2022/04/21 01:46:18;;;;;;;1.95;1.50;;;7.20;99.90;;;;;;5058611;28;20044;-73
2022/04/21 01:48:44;;;;;;;3.33;1.77;;;7.00;99.90;;;;;;5093285;28;20040;-73
2022/04/21 01:51:09;;;;;;;3.60;1.85;;;7.20;99.90;;;;;;5076369;28;20040;-73
2022/04/21 01:53:35;;;;;;;2.97;2.03;;;6.90;99.90;;;;;;5075841;28;20084;-72
2022/04/21 01:56:01;;;;;;;2.58;1.23;;;6.90;99.90;;;;;;5075849;28;20036;-72
2022/04/21 01:58:27;;;;;;;3.42;2.05;;;7.50;99.90;;;;;;5092740;28;20180;-72
2022/04/21 02:00:52;;;;;;;5.03;2.17;;;7.60;99.90;;;;;;5092614;28;20423;-72
2022/04/21 02:03:19;;;;;;;3.28;1.70;;;6.80;99.90;;;;;;5075982;28;20047;-73
2022/04/21 02:05:45;;;;;;;5.40;2.33;;;7.40;99.90;;;;;;5092463;28;20040;-73
2022/04/21 02:08:11;;;;;;;3.13;2.00;;;7.10;99.90;;;;;;5075594;28;20040;-72
2022/04/21 02:10:37;;;;;;;3.70;1.75;;;6.90;99.90;;;;;;5076057;28;20505;-73
2022/04/21 02:13:02;;;;;;;4.25;2.03;;;6.90;99.90;;;;;;5059008;28;20036;-73
2022/04/21 02:15:28;;;;;;;3.83;2.28;;;6.60;99.90;;;;;;5075470;28;20044;-73
2022/04/21 02:17:54;;;;;;;4.03;1.98;;;6.60;99.90;;;;;;5075740;28;20040;-73
2022/04/21 02:20:20;;;;;;;2.72;1.80;;;6.70;99.90;;;;;;5075774;28;20040;-73
2022/04/21 02:22:47;;;;;;;3.20;1.90;;;6.60;99.90;;;;;;5075799;28;20044;-73
2022/04/21 02:25:15;;;;;;;2.83;1.60;;;6.60;99.90;;;;;;5075233;28;20044;-73
2022/04/21 02:27:43;;;;;;;2.35;1.17;;;6.60;99.90;;;;;;5092141;28;20044;-73
2022/04/21 02:30:12;;;;;;;3.20;1.90;;;6.40;99.90;;;;;;5092085;28;20064;-73
2022/04/21 02:32:38;;;;;;;2.17;1.52;;;6.60;99.90;;;;;;5092401;28;20055;-73
2022/04/21 02:35:06;;;;;;;4.22;2.20;;;6.60;99.90;;;;;;5075407;28;20044;-73
2022/04/21 02:37:40;;;;;;;2.33;1.42;;;6.80;99.90;;;;;;5092149;28;20048;-73
2022/04/21 02:40:08;;;;;;;4.45;1.65;;;6.80;99.90;;;;;;5092003;28;20507;-73
2022/04/21 02:42:35;;;;;;;5.20;2.88;;;6.50;99.90;;;;;;5092276;28;20093;-73
2022/04/21 02:45:01;;;;;;;3.42;1.83;;;6.80;99.90;;;;;;5091818;28;20097;-73
2022/04/21 02:47:28;;;;;;;3.40;2.00;;;6.50;99.90;;;;;;5058307;28;20040;-73
2022/04/21 02:49:54;;;;;;;3.40;1.30;;;6.30;99.90;;;;;;5091690;28;20032;-73
2022/04/21 02:52:21;;;;;;;3.00;1.88;;;6.30;99.90;;;;;;5091856;28;20089;-73
2022/04/21 02:57:45;;;;;;;3.65;1.77;;;6.20;99.90;;;;;;5069528;28;20056;-73
2022/04/21 03:00:12;;;;;;;5.13;2.08;;;7.10;99.90;;;;;;5091959;28;20399;-73
2022/04/21 03:02:37;;;;;;;3.58;2.30;;;6.30;99.90;;;;;;5075144;28;20432;-73
2022/04/21 03:05:03;;;;;;;4.43;2.40;;;6.30;99.90;;;;;;5074902;28;20051;-73
2022/04/21 03:07:29;;;;;;;2.88;1.90;;;6.40;99.90;;;;;;5058129;28;20032;-73
2022/04/21 03:09:55;;;;;;;2.67;2.05;;;6.20;99.90;;;;;;5074907;28;20492;-73
2022/04/21 03:12:26;;;;;;;3.88;2.03;;;6.30;99.90;;;;;;5091662;28;20047;-73
2022/04/21 03:14:53;;;;;;;3.72;2.22;;;6.20;99.90;;;;;;5091991;28;20100;-73
2022/04/21 03:17:19;;;;;;;4.03;2.13;;;6.60;99.90;;;;;;5091490;28;20051;-73
2022/04/21 03:19:45;;;;;;;5.57;2.30;;;6.30;99.90;;;;;;5091633;28;20036;-73
2022/04/21 03:25:01;;;;;;;2.60;1.33;;;6.20;99.90;;;;;;5091595;28;20399;-73
2022/04/21 03:27:28;;;;;;;3.05;1.92;;;6.20;99.90;;;;;;5091790;28;20043;-73
2022/04/21 03:30:06;;;;;;;4.68;1.48;;;6.10;99.90;;;;;;5074826;28;20120;-72
2022/04/21 03:32:32;;;;;;;5.28;2.03;;;5.80;99.90;;;;;;5091498;28;20135;-73
2022/04/21 03:35:00;;;;;;;1.92;1.55;;;6.10;99.90;;;;;;5074548;28;20137;-73
2022/04/21 03:37:26;;;;;;;3.80;1.85;;;6.00;99.90;;;;;;5091702;28;20044;-72
2022/04/21 03:39:52;;;;;;;1.67;1.23;;;6.00;99.90;;;;;;5074842;28;20495;-73
2022/04/21 03:42:27;;;;;;;5.00;2.35;;;5.70;99.90;;;;;;5091565;28;20036;-73
2022/04/21 03:44:54;;;;;;;2.63;1.55;;;5.80;99.90;;;;;;5091242;28;20040;-72
2022/04/21 03:47:20;;;;;;;5.32;1.85;;;5.90;99.90;;;;;;5091292;28;20043;-73
2022/04/21 03:49:47;;;;;;;6.72;1.52;;;5.80;99.90;;;;;;5091160;28;20119;-73
2022/04/21 03:52:13;;;;;;;8.23;2.58;;;5.90;99.90;;;;;;5091286;28;20071;-73
2022/04/21 03:54:40;;;;;;;4.80;2.53;;;5.80;99.90;;;;;;5091491;28;20048;-73
2022/04/21 03:57:07;;;;;;;3.38;1.67;;;6.70;99.90;;;;;;5091576;28;20046;-73
2022/04/21 03:59:33;;;;;;;3.30;1.23;;;5.80;99.90;;;;;;5091161;28;20052;-73
2022/04/21 04:02:02;;;;;;;2.67;2.03;;;5.70;99.90;;;;;;5091095;28;20127;-72
2022/04/21 04:04:32;;;;;;;8.32;2.50;;;6.00;99.90;;;;;;5091220;28;20071;-73
2022/04/21 04:12:35;;;;;;;2.63;2.10;;;5.60;99.90;;;;;;5095045;28;20032;-73
2022/04/21 04:15:03;;;;;;;3.17;2.17;;;5.70;99.90;;;;;;5094817;28;20078;-73
2022/04/21 04:17:29;;;;;;;3.10;2.33;;;5.70;99.90;;;;;;5094698;28;20098;-73
2022/04/21 04:19:54;;;;;;;2.55;1.67;;;5.60;99.90;;;;;;5077819;28;20394;-73
2022/04/21 04:22:20;;;;;;;5.13;3.08;;;5.60;99.90;;;;;;5094652;28;20123;-73
2022/04/21 04:24:46;;;;;;;2.00;1.30;;;5.70;99.90;;;;;;5094499;28;20514;-73
2022/04/21 04:27:12;;;;;;;4.03;2.28;;;5.60;99.90;;;;;;5078011;28;20515;-73
2022/04/21 04:29:37;;;;;;;3.58;1.65;;;5.60;99.90;;;;;;5077508;28;20059;-73
2022/04/21 04:32:04;;;;;;;4.68;2.10;;;5.60;99.90;;;;;;5094753;28;20403;-73
2022/04/21 04:34:29;;;;;;;2.85;1.77;;;5.50;99.90;;;;;;5077961;28;20392;-73
2022/04/21 04:36:55;;;;;;;3.33;2.30;;;5.60;99.90;;;;;;5077394;28;20126;-73
2022/04/21 04:39:21;;;;;;;3.92;2.42;;;5.70;99.90;;;;;;5094507;28;20134;-73
2022/04/21 04:44:30;;;;;;;6.80;2.17;;;5.90;99.90;;;;;;5094317;28;20044;-73
2022/04/21 04:46:57;;;;;;;2.58;1.48;;;5.60;99.90;;;;;;5077160;28;20074;-74
2022/04/21 04:49:23;;;;;;;2.33;1.42;;;5.60;99.90;;;;;;5094266;28;20517;-73
2022/04/21 04:51:50;;;;;;;4.63;1.67;;;5.60;99.90;;;;;;5077050;28;20046;-74
2022/04/21 04:54:17;;;;;;;2.33;1.65;;;5.60;99.90;;;;;;5093964;28;20048;-74
2022/04/21 04:56:45;;;;;;;2.28;1.80;;;5.70;99.90;;;;;;5093866;28;20074;-73
2022/04/21 04:59:11;;;;;;;2.92;1.77;;;5.70;99.90;;;;;;5077331;28;20411;-73
2022/04/21 05:01:41;;;;;;;1.85;1.33;;;5.70;99.90;;;;;;5060372;28;20127;-73
2022/04/21 05:04:11;;;;;;;1.58;1.27;;;5.70;99.90;;;;;;5077014;28;20063;-73
2022/04/21 05:06:38;;;;;;;2.67;1.95;;;5.80;99.90;;;;;;5060277;28;20044;-73
2022/04/21 05:09:11;;;;;;;4.93;2.40;;;5.90;99.90;;;;;;5093648;28;20072;-73
2022/04/21 05:11:38;;;;;;;7.40;2.05;;;5.90;99.90;;;;;;5077101;28;20036;-73
2022/04/21 05:14:04;;;;;;;2.10;1.70;;;6.00;99.90;;;;;;5093559;28;20040;-73
2022/04/21 05:16:30;;;;;;;4.30;1.48;;;6.10;99.90;;;;;;5093783;28;20518;-73
2022/04/21 05:18:57;;;;;;;4.47;1.70;;;6.50;99.90;;;;;;5093462;28;20040;-74
2022/04/21 05:21:23;;;;;;;3.63;2.17;;;6.20;99.90;;;;;;5092358;28;20048;-73
2022/04/21 05:23:55;;;;;;;3.55;1.80;;;6.30;99.90;;;;;;5076842;28;20446;-72
2022/04/21 05:26:21;;;;;;;3.50;1.98;;;7.10;99.90;;;;;;5093245;28;20043;-72
2022/04/21 05:28:47;;;;;;;2.45;1.30;;;6.40;99.90;;;;;;5092919;28;20055;-72
2022/04/21 05:31:14;;;;;;;5.05;2.30;;;6.50;99.90;;;;;;5076644;28;20123;-73
2022/04/21 05:33:40;;;;;;;4.72;2.78;;;6.60;99.90;;;;;;5076607;28;20495;-73
2022/04/21 05:36:06;;;;;;;2.40;1.35;;;6.70;99.90;;;;;;5059695;28;20040;-73
2022/04/21 05:38:32;;;;;;;4.13;1.80;;;6.80;99.90;;;;;;5076238;28;20047;-72
2022/04/21 05:40:59;;;;;;;4.57;2.03;;;6.90;99.90;;;;;;5076014;28;20089;-73
2022/04/21 05:43:36;;;;;;;2.72;1.48;;;7.00;99.90;;;;;;5076096;28;20039;-73
2022/04/21 05:46:02;;;;;;;3.10;1.38;;;7.10;99.90;;;;;;5092877;28;20123;-73
2022/04/21 05:48:28;;;;;;;3.20;2.05;;;7.20;99.90;;;;;;5059736;28;20071;-73
2022/04/21 05:50:54;;;;;;;6.57;1.95;;;7.30;99.90;;;;;;5075932;28;20039;-73
2022/04/21 05:53:24;;;;;;;2.70;1.75;;;7.40;99.90;;;;;;5076076;28;20040;-74
2022/04/21 05:55:52;;;;;;;2.75;2.05;;;7.50;99.90;;;;;;5092908;28;20090;-73
2022/04/21 05:58:18;;;;;;;2.53;1.58;;;7.50;99.90;;;;;;5092470;28;20036;-74
2022/04/21 06:00:44;;;;;;;2.80;1.88;;;7.70;99.90;;;;;;5092388;28;20150;-72
2022/04/21 06:03:11;;;;;;;2.17;1.85;;;7.80;99.90;;;;;;5092271;28;20075;-73
2022/04/21 06:05:37;;;;;;;5.80;2.42;;;7.80;99.90;;;;;;5059081;28;20418;-74
2022/04/21 06:08:06;;;;;;;2.88;2.08;;;7.90;99.90;;;;;;5092554;28;20051;-77
2022/04/21 06:10:33;;;;;;;3.08;2.00;;;8.00;99.90;;;;;;5075888;28;20036;-73
2022/04/21 06:13:01;;;;;;;4.28;2.50;;;8.80;99.90;;;;;;5092507;28;20086;-72
2022/04/21 06:15:27;;;;;;;2.35;1.40;;;8.20;99.90;;;;;;5092128;28;20048;-71
2022/04/21 06:17:53;;;;;;;2.40;1.15;;;8.50;99.90;;;;;;5075353;28;20048;-73
2022/04/21 06:20:19;;;;;;;1.50;1.23;;;8.50;99.90;;;;;;5092379;28;20043;-73
2022/04/21 06:22:45;;;;;;;6.03;1.98;;;8.50;99.90;;;;;;5075468;28;20487;-72
2022/04/21 06:25:11;;;;;;;3.72;1.95;;;8.70;99.90;;;;;;5092179;28;20101;-72
2022/04/21 06:27:36;;;;;;;3.25;1.70;;;8.90;99.90;;;;;;5058768;28;20043;-73
2022/04/21 06:30:03;;;;;;;3.22;1.55;;;9.10;99.90;;;;;;5075028;28;20064;-72
2022/04/21 06:32:28;;;;;;;4.95;3.17;;;9.10;99.90;;;;;;5074758;28;20058;-71
2022/04/21 06:34:56;;;;;;;1.98;1.75;;;9.30;99.90;;;;;;5091968;28;20576;-73
2022/04/21 06:37:22;;;;;;;2.15;1.20;;;9.50;99.90;;;;;;5092204;28;20090;-72
2022/04/21 06:39:48;;;;;;;2.53;1.45;;;9.60;99.90;;;;;;5075430;28;20590;-73
2022/04/21 06:42:13;;;;;;;3.33;1.33;;;9.70;99.90;;;;;;5092166;28;20142;-72
2022/04/21 06:50:09;;;;;;;3.42;1.52;;;10.40;99.90;;;;;;5077474;28;20154;-73
2022/04/21 06:52:36;;;;;;;3.33;1.40;;;10.30;99.90;;;;;;5075209;28;20448;-73
2022/04/21 06:55:03;;;;;;;2.88;1.30;;;10.80;99.90;;;;;;5058463;28;20070;-73
2022/04/21 06:57:29;;;;;;;2.17;1.42;;;10.60;99.90;;;;;;5092016;28;20484;-73
2022/04/21 06:59:55;;;;;;;3.78;1.40;;;10.70;99.90;;;;;;5091728;28;20051;-74
2022/04/21 07:02:31;;;;;;;2.70;1.30;;;10.80;99.90;;;;;;5074943;28;20036;-74
2022/04/21 07:05:08;;;;;;;2.08;1.30;;;11.00;99.90;;;;;;5074838;28;20052;-74
2022/04/21 07:07:34;;;;;;;2.35;1.13;;;11.10;99.90;;;;;;5091586;28;20036;-74
2022/04/21 07:10:00;;;;;;;2.58;1.25;;;11.20;99.90;;;;;;5091525;28;20036;-74
2022/04/21 07:12:27;;;;;;;1.70;1.17;;;11.30;99.90;;;;;;5074952;28;20081;-74
2022/04/21 07:14:53;;;;;;;6.93;1.38;;;11.40;99.90;;;;;;5091375;28;20040;-74
2022/04/21 07:17:20;;;;;;;3.83;1.77;;;11.50;99.90;;;;;;5074714;28;20039;-73
2022/04/21 07:19:46;;;;;;;2.45;1.10;;;11.60;99.90;;;;;;5074685;28;20126;-73
2022/04/21 07:22:11;;;;;;;2.20;1.02;;;11.60;99.90;;;;;;5091497;28;20571;-74
2022/04/21 07:24:37;;;;;;;1.45;1.15;;;11.80;99.90;;;;;;5074922;28;20097;-74
2022/04/21 07:27:03;;;;;;;1.90;1.42;;;11.80;99.90;;;;;;5091453;28;20055;-74
2022/04/21 07:29:30;;;;;;;2.20;1.33;;;11.90;99.90;;;;;;5091270;28;20052;-74
2022/04/21 07:31:56;;;;;;;1.50;1.02;;;12.00;99.90;;;;;;5074929;28;20036;-73
2022/04/21 07:34:23;;;;;;;1.40;1.13;;;12.10;99.90;;;;;;5074566;28;20048;-73
2022/04/21 07:36:49;;;;;;;4.05;1.88;;;12.10;99.90;;;;;;5091661;28;20480;-73
2022/04/21 07:39:15;;;;;;;0.90;0.82;;;12.20;99.90;;;;;;5091258;28;20036;-73
2022/04/21 07:41:41;;;;;;;1.30;0.98;;;12.20;99.90;;;;;;5091314;28;20506;-73
2022/04/21 07:44:07;;;;;;;3.20;1.95;;;12.40;99.90;;;;;;5093183;28;20036;-73
2022/04/21 07:46:33;;;;;;;5.80;1.60;;;12.50;99.90;;;;;;5095243;28;20041;-73
2022/04/21 07:51:43;;;;;;;3.70;1.10;;;12.90;99.90;;;;;;5081580;28;20096;-75
2022/04/21 07:54:09;;;;;;;1.15;0.95;;;13.00;99.90;;;;;;5078685;28;20130;-75
2022/04/21 07:56:36;;;;;;;0.88;0.75;;;13.10;99.90;;;;;;5095695;28;20059;-75
2022/04/21 07:59:02;;;;;;;1.52;0.77;;;13.20;99.90;;;;;;5062094;28;20043;-74
2022/04/21 08:01:28;;;;;;;2.08;1.00;;;13.20;99.90;;;;;;5078208;28;20051;-74
2022/04/21 08:03:53;;;;;;;1.52;0.88;;;13.30;99.90;;;;;;5095139;28;20044;-74
2022/04/21 08:06:19;;;;;;;1.23;0.65;;;13.20;98.90;;;;;;5078038;28;20400;-73
2022/04/21 08:08:45;;;;;;;1.17;1.00;;;13.40;98.90;;;;;;5095164;28;20036;-73
2022/04/21 08:11:10;;;;;;;1.05;0.80;;;13.30;99.10;;;;;;5078119;28;20036;-73
2022/04/21 08:13:36;;;;;;;1.50;0.93;;;13.40;99.10;;;;;;5077862;28;20046;-74
2022/04/21 08:16:02;;;;;;;0.90;0.70;;;13.50;98.10;;;;;;5077782;28;20050;-73
2022/04/21 08:18:28;;;;;;;1.42;0.90;;;13.60;98.40;;;;;;5061554;28;20051;-73
2022/04/21 08:20:58;;;;;;;1.45;0.65;;;13.60;98.60;;;;;;5077640;28;20078;-73
2022/04/21 08:23:25;;;;;;;1.38;1.15;;;13.60;98.30;;;;;;5095133;28;20048;-73
2022/04/21 08:34:04;;;;;;;5.00;1.30;;;13.90;98.40;;;;;;5080062;28;20127;-74
2022/04/21 08:36:30;;;;;;;0.80;0.70;;;14.00;97.70;;;;;;5094379;28;20071;-73
2022/04/21 08:38:56;;;;;;;1.45;0.90;;;14.10;98.20;;;;;;5077417;28;20044;-73
2022/04/21 08:41:27;;;;;;;3.08;1.20;;;14.20;98.10;;;;;;5077657;28;20054;-74
2022/04/21 08:43:55;;;;;;;1.08;0.88;;;14.20;97.60;;;;;;5094173;28;20043;-74
2022/04/21 08:46:25;;;;;;;2.55;1.45;;;14.30;97.40;;;;;;5077173;28;20039;-73
2022/04/21 08:48:52;;;;;;;1.60;0.82;;;14.40;97.80;;;;;;5094426;28;20476;-74
2022/04/21 08:51:23;;;;;;;2.42;1.00;;;14.40;96.90;;;;;;5093954;28;20044;-74
2022/04/21 08:53:50;;;;;;;1.67;0.88;;;14.40;97.50;;;;;;5077242;28;20032;-74
2022/04/21 08:56:17;;;;;;;2.35;1.17;;;14.60;98.00;;;;;;5077257;28;20051;-74
2022/04/21 08:58:42;;;;;;;1.25;0.90;;;14.50;97.20;;;;;;5077298;28;20534;-74
2022/04/21 09:01:08;;;;;;;2.85;0.75;;;14.50;96.60;;;;;;5093806;28;20051;-74
2022/04/21 09:03:36;;;;;;;1.02;0.90;;;14.50;96.90;;;;;;5093977;28;20040;-72
2022/04/21 09:06:02;;;;;;;3.15;1.10;;;14.40;96.60;;;;;;5093489;28;20048;-73
2022/04/21 09:08:28;;;;;;;1.45;1.10;;;14.50;96.90;;;;;;5093811;28;20043;-73
2022/04/21 09:11:05;;;;;;;1.75;0.90;;;14.70;97.40;;;;;;5060360;28;20032;-73
2022/04/21 09:13:42;;;;;;;1.02;0.80;;;14.70;96.80;;;;;;5076634;28;20185;-73
2022/04/21 09:16:10;;;;;;;0.95;0.80;;;14.70;96.50;;;;;;5093545;28;20044;-74
2022/04/21 09:18:40;;;;;;;1.40;0.90;;;14.80;96.80;;;;;;5093431;28;20047;-73
2022/04/21 09:21:08;;;;;;;1.63;0.95;;;14.80;96.40;;;;;;5093475;28;20044;-73
2022/04/21 09:23:34;;;;;;;2.22;1.25;;;14.90;96.60;;;;;;5093415;28;20044;-73
2022/04/21 09:26:07;;;;;;;2.22;1.23;;;15.00;96.90;;;;;;5093316;28;20545;-74
2022/04/21 09:28:33;;;;;;;1.10;0.70;;;15.00;96.50;;;;;;5093512;28;20039;-74
2022/04/21 09:31:00;;;;;;;1.27;1.13;;;15.20;95.50;;;;;;5093271;28;20040;-73
2022/04/21 09:33:32;;;;;;;1.40;0.93;;;15.10;96.20;;;;;;5093146;28;20036;-74
2022/04/21 09:36:00;;;;;;;1.35;0.85;;;16.00;96.40;;;;;;5093059;28;20089;-73
2022/04/21 09:38:26;;;;;;;1.38;0.85;;;15.10;95.60;;;;;;5093053;28;20101;-75
2022/04/21 09:40:52;;;;;;;1.85;1.00;;;15.20;96.10;;;;;;5093071;28;20097;-74
2022/04/21 09:43:31;;;;;;;3.00;1.25;;;15.20;95.80;;;;;;5092956;28;20487;-74
2022/04/21 09:46:16;;;;;;;1.95;1.17;;;15.20;95.80;;;;;;5092837;28;20040;-74
2022/04/21 09:48:43;;;;;;;2.47;1.27;;;15.40;96.10;;;;;;5075868;28;20044;-74
2022/04/21 09:51:14;;;;;;;2.03;1.40;;;15.50;96.20;;;;;;5076170;28;20502;-73
2022/04/21 09:53:49;;;;;;;3.92;0.90;;;15.40;94.90;;;;;;5092630;28;20165;-74
2022/04/21 09:56:16;;;;;;;0.95;0.75;;;15.50;95.90;;;;;;5092757;28;20055;-74
2022/04/21 09:58:44;;;;;;;1.13;0.88;;;15.60;95.90;;;;;;5092670;28;20040;-74
2022/04/21 10:01:10;;;;;;;1.00;0.90;;;15.60;95.50;;;;;;5092581;28;20051;-74
2022/04/21 10:03:36;;;;;;;5.07;1.02;;;;;;;;;;5092817;28;20510;-74
2022/04/21 10:06:02;;;;;;;10.05;1.40;;;16.00;99.20;;;;;;5091666;28;20071;-74
2022/04/21 10:08:29;;;;;;;1.75;1.17;;;16.10;99.90;;;;;;5075513;28;20036;-75
2022/04/21 10:10:56;;;;;;;4.22;1.45;;;16.00;99.90;;;;;;5092361;28;20036;-74
2022/04/21 10:13:22;;;;;;;1.20;0.90;;;16.20;99.90;;;;;;5092405;28;20047;-74
2022/04/21 10:15:51;;;;;;;1.27;0.70;;;16.20;99.90;;;;;;5075435;28;20040;-74
2022/04/21 10:18:17;;;;;;;2.45;0.98;;;16.10;99.90;;;;;;5092458;28;20507;-74
2022/04/21 10:20:47;;;;;;;2.53;1.20;;;16.30;99.90;;;;;;5075287;28;20048;-74
2022/04/21 10:23:16;;;;;;;2.30;0.85;;;16.20;99.90;;;;;;5075248;28;20048;-74
2022/04/21 10:25:45;;;;;;;1.10;0.82;;;16.20;99.80;;;;;;5092136;28;20486;-74
2022/04/21 10:28:39;;;;;;;1.40;0.95;;;16.10;99.20;;;;;;5092096;28;20068;-74
2022/04/21 10:31:30;;;;;;;1.42;0.93;;;16.20;99.40;;;;;;5092066;28;20419;-74
2022/04/21 10:33:55;;;;;;;2.60;1.30;;;16.20;98.90;;;;;;5091956;28;20123;-74
2022/04/21 10:36:48;;;;;;;2.38;1.15;;;16.20;99.80;;;;;;5092608;28;20079;-73
2022/04/21 10:39:16;;;;;;;1.92;0.95;;;16.40;99.90;;;;;;5089724;28;20109;-74
2022/04/21 10:41:42;;;;;;;3.22;1.42;;;16.30;98.30;;;;;;5091889;28;20044;-73
2022/04/21 10:44:15;;;;;;;2.00;0.98;;;16.20;98.70;;;;;;5092117;28;20130;-74
2022/04/21 10:46:42;;;;;;;1.08;0.80;;;16.30;99.30;;;;;;5074917;28;20047;-74
2022/04/21 10:49:09;;;;;;;1.17;0.82;;;16.30;98.70;;;;;;5091742;28;20062;-74
2022/04/21 10:57:12;;;;;;;1.50;1.00;;;16.40;98.90;;;;;;5075124;28;20032;-74
2022/04/21 10:57:34;;;;;;;1.48;1.00;;;16.50;97.80;;;;;;5091609;28;20044;-74
2022/04/21 11:00:05;;;;;;;1.30;0.88;;;16.30;97.60;;;;;;5091629;28;20068;-74
2022/04/21 11:02:42;;;;;;;1.27;0.93;;;16.40;97.10;;;;;;5091676;28;20068;-74
2022/04/21 11:05:23;;;;;;;1.65;0.98;;;16.30;98.00;;;;;;5091557;28;20059;-75
2022/04/21 11:07:49;;;;;;;;;;;16.30;97.80;;;;;;5075521;28;20112;-71
2022/04/21 11:10:25;;;;;;;2.53;0.85;;;16.20;97.50;;;;;;5075012;28;20363;-73
2022/04/21 11:12:51;;;;;;;0.85;0.70;;;16.30;98.20;;;;;;5091846;28;20441;-72
2022/04/21 11:15:32;;;;;;;3.38;1.20;;;16.60;98.30;;;;;;5091588;28;20047;-73
2022/04/21 11:18:05;;;;;;;1.60;0.90;;;16.40;98.00;;;;;;5093413;28;20044;-73
2022/04/21 11:20:31;;;;;;;1.33;0.90;;;16.50;98.10;;;;;;5095840;28;20040;-73
2022/04/21 11:22:56;;;;;;;1.42;0.82;;;16.40;97.10;;;;;;5095876;28;20396;-74
2022/04/21 11:25:22;;;;;;;1.52;1.27;;;16.50;97.70;;;;;;5095733;28;20097;-73
2022/04/21 11:27:49;;;;;;;2.55;0.98;;;16.50;98.30;;;;;;5095780;28;20503;-73
2022/04/21 11:30:15;;;;;;;2.50;1.13;;;16.90;97.70;;;;;;5095345;28;20052;-73
2022/04/21 11:32:53;;;;;;;1.17;0.80;;;17.00;96.70;;;;;;5095513;28;20085;-73
2022/04/21 11:35:24;;;;;;;0.82;0.80;;;16.90;96.70;;;;;;5078556;28;20048;-73
2022/04/21 11:37:55;;;;;;;1.92;1.00;;;16.90;96.00;;;;;;5095644;28;20040;-73
2022/04/21 11:40:22;;;;;;;1.33;1.08;;;16.90;94.80;;;;;;5095342;28;20094;-74
2022/04/21 11:42:49;;;;;;;2.88;0.90;;;16.80;95.80;;;;;;5095304;28;20044;-74
2022/04/21 11:45:26;;;;;;;1.48;0.90;;;16.60;95.50;;;;;;5095101;28;20040;-74
2022/04/21 11:47:53;;;;;;;1.48;0.85;;;16.60;95.20;;;;;;5095418;28;20165;-74
2022/04/21 11:50:27;;;;;;;1.40;0.90;;;16.80;95.20;;;;;;5095161;28;20047;-74
2022/04/21 11:52:54;;;;;;;2.90;1.13;;;16.80;95.70;;;;;;5094960;28;20075;-72
2022/04/21 11:55:30;;;;;;;3.45;1.77;;;16.70;95.50;;;;;;5078105;28;20127;-73
2022/04/21 11:57:56;;;;;;;3.95;1.40;;;16.80;94.90;;;;;;5095270;28;20499;-73
2022/04/21 12:08:48;;;;;;;5.70;1.30;;;17.20;95.10;;;;;;5095099;28;20044;-74
2022/04/21 12:11:17;;;;;;;2.17;1.50;;;17.30;95.00;;;;;;5094980;28;20518;-74
2022/04/21 12:13:47;;;;;;;2.45;1.02;;;17.40;95.20;;;;;;5094646;28;20119;-74
2022/04/21 12:16:39;;;;;;;2.13;1.20;;;17.60;96.70;;;;;;5094929;28;20518;-74
2022/04/21 12:19:09;;;;;;;3.40;1.52;;;17.70;96.70;;;;;;5094544;28;20056;-74
2022/04/21 12:21:36;;;;;;;1.65;1.30;;;17.60;93.00;;;;;;5094614;28;20131;-74
2022/04/21 12:24:17;;;;;;;2.72;1.63;;;17.80;92.40;;;;;;5094435;28;20040;-74
2022/04/21 12:26:53;;;;;;;1.95;1.23;;;17.70;89.70;;;;;;5077427;28;20046;-73
2022/04/21 12:29:21;;;;;;;2.90;1.20;;;18.00;95.60;;;;;;5093554;28;20059;-74
2022/04/21 12:31:48;;;;;;;1.33;1.08;;;17.90;97.60;;;;;;5094347;28;20101;-74
2022/04/21 12:34:21;;;;;;;1.77;1.20;;;18.10;98.30;;;;;;5094155;28;20040;-73
2022/04/21 12:37:00;;;;;;;4.45;1.50;;;18.10;97.50;;;;;;5094368;28;20040;-74
2022/04/21 12:39:29;;;;;;;2.58;1.60;;;18.20;96.40;;;;;;5078134;28;20036;-74
2022/04/21 12:41:56;;;;;;;1.75;1.30;;;18.00;96.80;;;;;;5094481;28;20047;-74
2022/04/21 12:44:25;;;;;;;4.35;2.03;;;18.00;97.00;;;;;;5094142;28;20079;-74
2022/04/21 12:47:17;;;;;;;6.30;1.23;;;17.90;96.10;;;;;;5094358;28;20046;-74
2022/04/21 12:49:52;;;;;;;2.13;1.30;;;17.70;95.20;;;;;;5094368;28;20101;-74
2022/04/21 12:52:35;;;;;;;3.35;1.25;;;17.60;95.80;;;;;;5077296;28;20032;-75
2022/04/21 12:55:07;;;;;;;3.35;1.60;;;17.60;96.50;;;;;;5094033;28;20048;-74
2022/04/21 12:57:34;;;;;;;2.15;1.00;;;17.60;96.50;;;;;;5094221;28;20036;-74
2022/04/21 12:59:59;;;;;;;2.13;1.23;;;17.70;97.00;;;;;;5093820;28;20054;-75
2022/04/21 13:02:26;;;;;;;1.75;1.20;;;17.70;96.30;;;;;;5093886;28;20040;-74
2022/04/21 13:04:52;;;;;;;2.75;1.60;;;17.60;96.20;;;;;;5093674;28;20101;-74
2022/04/21 13:07:18;;;;;;;2.17;1.50;;;17.60;96.30;;;;;;5093992;28;20044;-74
2022/04/21 13:09:44;;;;;;;2.67;1.50;;;17.70;97.00;;;;;;5093955;28;20043;-74
2022/04/21 13:12:10;;;;;;;1.77;1.35;;;17.80;96.50;;;;;;5093664;28;20039;-74
2022/04/21 13:14:35;;;;;;;2.20;1.13;;;17.80;96.50;;;;;;5060148;28;20043;-74
2022/04/21 13:17:01;;;;;;;5.63;1.75;;;17.80;97.10;;;;;;5076964;28;20040;-76
2022/04/21 13:19:27;;;;;;;2.60;1.60;;;18.00;97.30;;;;;;5093873;28;20123;-74
2022/04/21 13:21:53;;;;;;;5.28;1.95;;;18.10;96.30;;;;;;5093585;28;20036;-75
2022/04/21 13:24:23;;;;;;;3.70;2.17;;;18.00;96.60;;;;;;5093508;28;20044;-75
2022/04/21 13:26:49;;;;;;;2.80;1.60;;;18.00;96.40;;;;;;5093519;28;20047;-75
2022/04/21 13:29:15;;;;;;;3.17;1.50;;;17.90;96.60;;;;;;5093298;28;20052;-75
2022/04/21 13:34:32;;;;;;;4.35;2.20;;;17.60;96.20;;;;;;5064901;28;20044;-74
2022/04/21 13:36:59;;;;;;;4.75;2.10;;;17.40;97.10;;;;;;5093241;28;20074;-76
2022/04/21 13:39:25;;;;;;;3.60;1.63;;;17.60;97.20;;;;;;5093113;28;20044;-75
2022/04/21 13:41:50;;;;;;;3.78;1.83;;;17.70;97.20;;;;;;5075112;28;20372;-74
2022/04/21 13:44:16;;;;;;;2.80;1.60;;;17.60;96.30;;;;;;5093031;28;20036;-74
2022/04/21 13:46:42;;;;;;;1.58;1.10;;;17.80;97.20;;;;;;5092988;28;20457;-76
2022/04/21 13:49:09;;;;;;;2.60;1.40;;;17.80;97.00;;;;;;5092894;28;20071;-75